Thayer, Nebraska
Current Conditions -  °F | °C
As of 5:15 PM on Wednesday 22 Oct 2014 (Local Time) from KJYR Reporting Station
Moderate Rain Moderate Rain  
Wind Chill: 63°   Ceiling: 3500
Heat Index: 63°   Visibility: 3mi
Dew Point: 59°   Wind: 10mph
Humidity: 88%   Direction: 260°W
Pressure: 30.02"   Gusts: NA
Location:  40.928°N, 97.4416°W
Report Text: KJYR 222215Z AUTO 26009KT 3SM RA FEW003 BKN035 OVC085 17/15 A3002 RMK AO2 P0009
Loading
Personal Weather Stations






























Interactive Weather Map
Tropical Storm Tracking
New forecast layout! Learn more

10-Day Weather Forecast

Advertisements
Track Severe Weather on mobile